createdAt,value
2023-02-14T10:11:47.446Z,99.90
2023-02-14T10:16:45.272Z,99.90
2023-02-14T10:21:43.804Z,99.90
2023-02-14T10:26:40.242Z,99.90
2023-02-14T10:31:41.084Z,99.90
2023-02-14T10:36:47.724Z,99.90
2023-02-14T10:41:51.400Z,99.90
2023-02-14T10:46:51.600Z,99.90
2023-02-14T10:51:52.558Z,99.90
2023-02-14T10:56:51.360Z,99.90
2023-02-14T11:01:46.872Z,99.90
2023-02-14T11:06:40.443Z,99.90
2023-02-14T11:11:38.848Z,99.90
2023-02-14T11:16:36.041Z,99.90
2023-02-14T11:21:39.272Z,99.90
2023-02-14T11:26:36.143Z,99.90
2023-02-14T11:31:32.553Z,99.10
2023-02-14T11:36:26.861Z,98.10
2023-02-14T11:41:21.988Z,97.30
2023-02-14T11:46:18.022Z,96.60
2023-02-14T11:51:14.143Z,95.60
2023-02-14T11:56:08.088Z,95.70
2023-02-14T12:01:03.951Z,94.90
2023-02-14T12:06:00.803Z,94.20
2023-02-14T12:11:03.835Z,93.00
2023-02-14T12:15:58.809Z,93.00
2023-02-14T12:20:59.914Z,92.50
2023-02-14T12:25:58.819Z,91.80
2023-02-14T12:30:52.593Z,90.90
2023-02-14T12:35:54.879Z,90.60
2023-02-14T12:40:58.028Z,90.30
2023-02-14T12:46:12.978Z,88.90
2023-02-14T12:51:12.186Z,87.80
2023-02-14T12:56:18.360Z,85.00
2023-02-14T13:01:42.173Z,84.30
2023-02-14T13:06:38.758Z,83.30
2023-02-14T13:11:43.988Z,81.50
2023-02-14T13:16:45.529Z,80.30
2023-02-14T13:21:40.755Z,77.40
2023-02-14T13:26:41.066Z,75.00
2023-02-14T13:31:35.249Z,71.90
2023-02-14T13:36:30.013Z,69.40
2023-02-14T13:41:25.703Z,68.20
2023-02-14T13:46:23.935Z,64.70
2023-02-14T13:51:17.625Z,62.70
2023-02-14T13:56:33.487Z,59.40
2023-02-14T14:01:39.103Z,59.40
2023-02-14T14:07:11.287Z,57.80
2023-02-14T14:12:38.908Z,56.90
2023-02-14T14:17:34.072Z,56.20
2023-02-14T14:22:28.835Z,56.40
2023-02-14T14:27:27.258Z,56.00
2023-02-14T14:32:26.613Z,55.00
2023-02-14T14:37:22.583Z,54.50
2023-02-14T14:42:20.782Z,54.50
2023-02-14T14:47:20.418Z,54.30
2023-02-14T14:52:27.356Z,55.20
2023-02-14T14:57:21.558Z,55.60
2023-02-14T15:02:26.834Z,56.70
2023-02-14T15:07:24.141Z,59.90
2023-02-14T15:12:39.801Z,67.30
2023-02-14T15:17:35.847Z,72.30
2023-02-14T15:22:34.075Z,75.90
2023-02-14T15:27:29.351Z,78.50
2023-02-14T15:32:23.471Z,80.20
2023-02-14T15:37:19.393Z,81.80
2023-02-14T15:42:26.004Z,82.80
2023-02-14T15:47:20.363Z,84.00
2023-02-14T15:52:16.432Z,85.50
2023-02-14T15:57:22.945Z,88.50
2023-02-14T16:02:29.341Z,90.20
2023-02-14T16:07:27.468Z,90.80
2023-02-14T16:12:36.857Z,91.70
2023-02-14T16:17:37.389Z,92.30
2023-02-14T16:22:38.412Z,92.80
2023-02-14T16:27:33.791Z,93.50
2023-02-14T16:32:27.559Z,94.10
2023-02-14T16:37:24.249Z,94.70
2023-02-14T16:42:19.575Z,95.10
